• Join FlightAware (Why Join?)
  • Login
  • US Flag 
01:44AM EDT


 

Airport Tracker/Info


-or-


 

Live Flight TrackerFlight Track Log ✈ N1727L ✈ 26-Jul-2013 ✈ T94 - KHQZ

Flight Track Log - Related Links

Times and Time Zones

All times are in EDT time to prevent confusion due to time zone crossing. See the N1727L flight status page for this flight to view local times or setup timezone preferences in your user account.

Time Position Orientation Groundspeed Altitude Reporting Facility
EDT Latitude Longitude Course Direction KTS MPH feet Rate Location/Type
02:38PM 29.3514 -98.4294 27° Northeast 113 130 2,000  Level Houston Center
02:39PM 29.3742 -98.4458 328° Northwest 105 121 2,600 600 Climbing Houston Center
02:40PM 29.3989 -98.4644 327° Northwest 101 116 3,200 600 Climbing Houston Center
02:42PM 29.4300 -98.4822 334° Northwest 97 112 4,100 600 Climbing Houston Center
02:42PM 29.4500 -98.4942 333° Northwest 97 112 4,500 540 Climbing Houston Center
02:43PM 29.4764 -98.5078 336° Northwest 107 123 5,100 600 Climbing Houston Center
02:44PM 29.8037 -98.3308 27° Northeast  Level Estimated
02:45PM 29.5083 -98.4897 26° Northeast 100 115 5,900  Level Houston Center
02:46PM 29.5264 -98.4803 24° Northeast 100 115 6,400 540 Climbing Houston Center
02:47PM 29.5583 -98.4619 27° Northeast 124 143 7,000 480 Climbing Houston Center
02:48PM 29.5842 -98.4469 27° Northeast 104 120 7,500 180 Climbing Houston Center
02:49PM 29.6200 -98.4258 27° Northeast 132 152 7,500  Level Houston Center
02:50PM 29.6581 -98.4044 26° Northeast 146 168 7,500  Level Houston Center
02:51PM 29.6917 -98.3833 29° Northeast 145 167 7,500  Level Houston Center
02:52PM 29.7275 -98.3622 27° Northeast 145 167 7,500  Level Houston Center
02:53PM 29.7614 -98.3436 25° Northeast 145 167 7,500  Level Houston Center
02:54PM 29.8133 -98.3133 27° Northeast 146 168 7,500  Level Houston Center
02:55PM 29.8492 -98.2911 28° Northeast 145 167 7,500  Level Houston Center
02:56PM 29.8883 -98.2681 27° Northeast 147 169 7,500  Level Houston Center
02:57PM 29.9244 -98.2475 26° Northeast 145 167 7,600  Climbing Houston Center
02:58PM 29.9631 -98.2242 28° Northeast 144 166 7,600  Level Houston Center
02:59PM 30.0003 -98.2025 27° Northeast 147 169 7,600  Level Houston Center
03:00PM 30.0397 -98.1797 27° Northeast 146 168 7,600  Level Houston Center
03:01PM 30.0761 -98.1575 28° Northeast 147 169 7,600 -60 Level Houston Center
03:02PM 30.1119 -98.1353 28° Northeast 148 170 7,500 -60 Descending Houston Center
03:03PM 30.1514 -98.1142 25° Northeast 146 168 7,500  Level Houston Center
03:04PM 30.1883 -98.0914 28° Northeast 148 170 7,500  Level Houston Center
03:06PM 30.2269 -98.0669 29° Northeast 147 169 7,500  Level Houston Center
03:07PM 30.2636 -98.0467 26° Northeast 146 168 7,500  Level Houston Center
03:08PM 30.3014 -98.0236 28° Northeast 145 167 7,500  Level Houston Center
03:09PM 30.3350 -98.0050 26° Northeast 148 170 7,500  Level Houston Center
03:10PM 30.3731 -97.9825 27° Northeast 151 174 7,500  Level Houston Center
03:11PM 30.4139 -97.9578 28° Northeast 143 165 7,500  Level Houston Center
03:12PM 30.4517 -97.9347 28° Northeast 148 170 7,500  Level Houston Center
03:13PM 30.4872 -97.9128 28° Northeast 145 167 7,500  Level Houston Center
03:14PM 30.5233 -97.8911 27° Northeast 145 167 7,500  Level Houston Center
03:15PM 30.5586 -97.8708 26° Northeast 141 162 7,500  Level Houston Center
03:16PM 30.5953 -97.8497 26° Northeast 144 166 7,500  Level Houston Center
03:17PM 30.6303 -97.8283 28° Northeast 141 162 7,500  Level Houston Center
03:18PM 30.6711 -97.8042 27° Northeast 139 160 7,500  Level Houston Center
03:19PM 30.7064 -97.7828 28° Northeast 140 161 7,500  Level Houston Center
03:20PM 30.7419 -97.7617 27° Northeast 142 163 7,500  Level Houston Center
03:21PM 30.7789 -97.7392 28° Northeast 145 167 7,500  Level Houston Center
03:22PM 30.8158 -97.7164 28° Northeast 147 169 7,500  Level Houston Center
03:23PM 30.8508 -97.6956 27° Northeast 142 163 7,500  Level Houston Center
03:24PM 30.8872 -97.6772 23° Northeast 142 163 7,500  Level Fort Worth Center
03:25PM 30.9208 -97.6556 29° Northeast 140 161 7,500  Level Fort Worth Center
03:26PM 30.9500 -97.6411 23° Northeast 143 165 7,500  Level Fort Worth Center
03:27PM 30.9814 -97.6192 31° Northeast 145 167 7,500  Level Fort Worth Center
03:27PM 31.0000 -97.6067 30° Northeast 144 166 7,500  Level Houston Center
03:28PM 31.0356 -97.5867 26° Northeast 141 162 7,500  Level Houston Center
03:29PM 31.0714 -97.5644 28° Northeast 143 165 7,500  Level Houston Center
03:30PM 31.1075 -97.5419 28° Northeast 144 166 7,500  Level Houston Center
03:31PM 31.1444 -97.5200 27° Northeast 146 168 7,500 -120 Level Houston Center
03:34PM 31.1990 -97.4838 30° Northeast  Level FlightAware Approximate
03:41PM 31.4244 -97.3354 27° Northeast  Level FlightAware Approximate
03:42PM 31.4573 -97.3158 27° Northeast  Level FlightAware Approximate
03:43PM 31.4902 -97.2961 27° Northeast  Level FlightAware Approximate
03:44PM 31.5231 -97.2764 27° Northeast  Level FlightAware Approximate
03:45PM 31.5560 -97.2567 27° Northeast  Level FlightAware Approximate
03:46PM 31.5888 -97.2370 27° Northeast  Level FlightAware Approximate
03:47PM 31.6217 -97.2172 27° Northeast  Level FlightAware Approximate
03:48PM 31.6546 -97.1975 27° Northeast  Level FlightAware Approximate
03:49PM 31.6875 -97.1777 27° Northeast  Level FlightAware Approximate
03:50PM 31.7204 -97.1579 27° Northeast  Level FlightAware Approximate
03:51PM 31.7532 -97.1381 27° Northeast  Level FlightAware Approximate
03:52PM 31.7861 -97.1183 27° Northeast  Level FlightAware Approximate
03:53PM 31.8190 -97.0985 27° Northeast  Level FlightAware Approximate
03:54PM 31.8518 -97.0786 27° Northeast  Level FlightAware Approximate
03:55PM 31.8847 -97.0588 27° Northeast  Level FlightAware Approximate
03:56PM 31.9175 -97.0389 27° Northeast  Level FlightAware Approximate
03:57PM 31.9504 -97.0190 27° Northeast  Level FlightAware Approximate
03:58PM 31.9832 -96.9992 27° Northeast  Level FlightAware Approximate
03:59PM 32.0161 -96.9792 27° Northeast  Level FlightAware Approximate
03:59PM 32.1667 -96.9000 27° Northeast 157 181 5,400  Level Dallas / Fort Worth TRACON
04:00PM 32.0489 -96.9593 27° Northeast  Level FlightAware Approximate
04:00PM 32.2000 -96.8667 40° Northeast 164 189 5,100  Level Dallas / Fort Worth TRACON
04:01PM 32.0818 -96.9394 27° Northeast  Level FlightAware Approximate
04:01PM 32.2500 -96.8333 29° Northeast 166 191 4,800  Level Dallas / Fort Worth TRACON
04:02PM 32.1146 -96.9194 27° Northeast  Level FlightAware Approximate
04:02PM 32.2833 -96.8167 23° Northeast 162 186 4,500  Level Dallas / Fort Worth TRACON
04:03PM 32.1474 -96.8995 27° Northeast  Level FlightAware Approximate
04:03PM 32.3167 -96.8000 23° Northeast 159 183 4,200  Level Dallas / Fort Worth TRACON
04:04PM 32.1803 -96.8795 27° Northeast  Level FlightAware Approximate
04:04PM 32.3667 -96.7667 29° Northeast 159 183 3,900  Level Dallas / Fort Worth TRACON
04:05PM 32.4000 -96.7500 23° Northeast 165 190 3,600 -240 Descending Dallas / Fort Worth TRACON
04:06PM 32.4500 -96.7167 29° Northeast 156 180 3,500 -60 Descending Dallas / Fort Worth TRACON
04:07PM 32.4833 -96.6833 40° Northeast 155 178 3,500  Level Dallas / Fort Worth TRACON
04:08PM 32.5167 -96.6500 40° Northeast 159 183 3,500 -240 Level Dallas / Fort Worth TRACON
04:09PM 32.5500 -96.6167 40° Northeast 163 188 3,100 -420 Descending Dallas / Fort Worth TRACON
04:11PM 32.6078 -96.5910 21° North  Level FlightAware Approximate
04:18PM 32.7333 -96.5167 40° Northeast  Level FlightAware Approximate
04:19PM 32.7470 -96.5304 40° Northeast  Level Estimated
04:20PM 32.7470 -96.5304 40° Northeast  Level Estimated
04:21PM 32.7470 -96.5304 40° Northeast  Level Estimated
04:22PM 32.7470 -96.5304 40° Northeast  Level Estimated
04:23PM 32.7470 -96.5304 40° Northeast  Level Estimated
04:24PM 32.7470 -96.5304 40° Northeast  Level Estimated
04:25PM 32.7470 -96.5304 40° Northeast  Level Estimated
04:26PM 32.7470 -96.5304 40° Northeast  Level Estimated
04:27PM 32.7470 -96.5304 40° Northeast  Level Estimated
04:28PM 32.7470 -96.5304 40° Northeast  Level Estimated
04:29PM 32.7470 -96.5304 40° Northeast  Level Estimated
04:30PM 32.7470 -96.5304 40° Northeast  Level Estimated
04:31PM 32.7470 -96.5304 40° Northeast  Level Estimated